Tropical Cyclones
[Index]
Main Index Home Page Stock Weather Photos Extreme Storms Discussion Storm News and Storm Chasing Reports Tropical Cyclones / Hurricanes / Typhoons Weather Data and Links Wild Fires / Bushfires Weather Observation Techniques Weather Picture Catalogue Tornado Pictures and Reports Stock Video Footage and DVDs for sale
Season 1984-1985 Tropical Cyclone ISOBEL Track Map
Season 1984-1985 Summaries: [BoM-AU] [JTWC-AU] [JTWC-SIO] [JTWC-SPAC] [JTWC-SH]
<<- Previous TC | BoM 1984-1985 Season | Next TC ->>

click for intensity scale information  Lat/long Grid: Show Hide

 Date Labels: Show Hide

Bureau of Meteorology Tropical Cyclone Data

Name: ISOBEL
Number: 670 / 198485_08

11 Feb 1985 06:00 UTC to 22 Feb 1985 00:00 UTC

    date/time    lat    long    hPa   cat  kts
1985-02-11 06    7.6   100.6   1003         23          
1985-02-11 12    7.9   100.8   1003         23          
1985-02-11 18    8.3   101.1   1003         23          
1985-02-12 00    8.7   101.5   1002         25          
1985-02-12 06    9.1   101.7   1001         27          
1985-02-12 12    9.6   101.9   1000         31          
1985-02-12 18   10.2   102.2    997         35          
1985-02-13 00   10.8   102.4    994    1    41          
1985-02-13 06   11.5   102.5    992    1    45          
1985-02-13 12   12.0   102.0    988    1    51          
1985-02-13 18   12.4   101.1    986    1    52          
1985-02-14 00   12.8   100.6    982    2    60          
1985-02-14 06   13.4   100.4    976    2    66          
1985-02-14 18   13.0   101.4    980    2    60          
1985-02-15 00   12.7   102.0    982    2    60          
1985-02-15 06   12.6   102.7    982    2    60          
1985-02-15 12   12.8   103.3    981    2    60          
1985-02-15 18   13.2   104.0    979    2    62          
1985-02-16 00   13.8   104.6    977    2    64          
1985-02-16 06   14.4   105.2    973    2    70          
1985-02-16 12   14.8   105.5    970    3    74          
1985-02-16 18   15.2   105.4    966    3    78          
1985-02-17 00   15.6   105.0    960    3    84          
1985-02-17 06   16.1   104.5    963    3    82          
1985-02-17 12   16.7   103.9    964    3    80          
1985-02-17 18   17.1   103.3    966    3    78          
1985-02-18 00   17.4   102.7    966    3    78          
1985-02-18 06   17.7   102.1    966    3    78          
1985-02-18 12   18.1   101.6    966    3    78          
1985-02-18 18   18.5   101.2    970    3    74          
1985-02-19 00   19.0   101.0    976    2    66          
1985-02-19 06   19.6   100.5    976    2    66          
1985-02-19 12   20.0   100.1    976    2    66          
1985-02-19 18   20.4    99.5    980    2    60          
1985-02-20 00   20.9    98.7    984    2    54          
1985-02-20 06   21.7    97.7    986    1    52          
1985-02-20 12   22.5    96.8    988    1    47          
1985-02-20 18   23.4    96.1    990    1    47          
1985-02-21 00   24.6    95.5    994    1    41          
1985-02-21 06   26.0    95.0    995    1    39          
1985-02-21 12   27.7    94.7    998         33          
1985-02-21 18   29.6    94.4    999         31          
1985-02-22 00   31.5    94.2   1002         25          
Winds are 10-min average.

Tropical cyclone tracks developed by Michael Bath using data from the Bureau of Meteorology and Google Maps.


[Australian Severe Weather index] [Copyright Notice] [Email Contacts] [Search This Site] [Privacy Policy]
Document: tropical_cyclone_isobel.htm Updated: 30 May 2013